Time;durP1;ratioP1;P1;durP2;ratioP2;P2;SDS_P1;SDS_P2;PMS_P1;PMS_P2;Temp;Humidity;BMP_temperature;BMP_pressure;BME280_temperature;BME280_humidity;BME280_pressure;Samples;Min_cycle;Max_cycle;Signal;HPM_P1;HPM_P2
2024/03/13 00:01:03;;;;;;;0.77;0.77;;;;;;;;;;5056316;28;20226;-78
2024/03/13 00:03:32;;;;;;;0.50;0.50;;;;;;;;;;5057671;28;20226;-78
2024/03/13 00:05:59;;;;;;;0.40;0.40;;;;;;;;;;5058369;28;20222;-78
2024/03/13 00:08:26;;;;;;;0.30;0.30;;;;;;;;;;5057573;28;20334;-77
2024/03/13 00:10:53;;;;;;;0.30;0.30;;;;;;;;;;5057054;28;20306;-77
2024/03/13 00:13:22;;;;;;;0.30;0.30;;;;;;;;;;5056993;28;21146;-77
2024/03/13 00:15:49;;;;;;;0.30;0.30;;;;;;;;;;5065044;28;20257;-77
2024/03/13 00:18:16;;;;;;;0.30;0.30;;;;;;;;;;5060435;28;20231;-77
2024/03/13 00:20:44;;;;;;;0.37;0.37;;;;;;;;;;5057384;28;20596;-78
2024/03/13 00:23:11;;;;;;;0.53;0.53;;;;;;;;;;5062328;28;20227;-77
2024/03/13 00:25:38;;;;;;;0.30;0.30;;;;;;;;;;5062796;28;20448;-78
2024/03/13 00:28:05;;;;;;;0.50;0.50;;;;;;;;;;5057872;28;20222;-77
2024/03/13 00:30:32;;;;;;;0.60;0.60;;;;;;;;;;5058419;28;20227;-77
2024/03/13 00:32:59;;;;;;;0.30;0.30;;;;;;;;;;5059043;28;20641;-77
2024/03/13 00:35:26;;;;;;;0.30;0.30;;;;;;;;;;5061913;28;20791;-78
2024/03/13 00:37:52;;;;;;;0.30;0.30;;;;;;;;;;5060548;28;20226;-78
2024/03/13 00:40:18;;;;;;;0.30;0.30;;;;;;;;;;5061685;28;20223;-78
2024/03/13 00:42:46;;;;;;;0.30;0.30;;;;;;;;;;5061526;28;20230;-81
2024/03/13 00:45:12;;;;;;;0.27;0.27;;;;;;;;;;5060976;28;20295;-78
2024/03/13 00:47:39;;;;;;;0.30;0.30;;;;;;;;;;5057134;28;20254;-78
2024/03/13 00:50:08;;;;;;;0.30;0.30;;;;;;;;;;5062669;28;20712;-77
2024/03/13 00:52:36;;;;;;;0.30;0.30;;;;;;;;;;5059270;28;20226;-77
2024/03/13 00:55:03;;;;;;;0.27;0.27;;;;;;;;;;5055136;28;20234;-78
2024/03/13 00:57:30;;;;;;;0.30;0.30;;;;;;;;;;5059713;28;20258;-78
2024/03/13 00:59:58;;;;;;;0.30;0.30;;;;;;;;;;5069074;28;20229;-78
2024/03/13 01:02:24;;;;;;;0.50;0.50;;;;;;;;;;5064129;28;20604;-77
2024/03/13 01:04:52;;;;;;;0.30;0.30;;;;;;;;;;5061642;28;20219;-79
2024/03/13 01:07:18;;;;;;;0.30;0.30;;;;;;;;;;5061390;28;20639;-78
2024/03/13 01:09:46;;;;;;;0.30;0.30;;;;;;;;;;5055497;28;20620;-78
2024/03/13 01:12:13;;;;;;;0.30;0.30;;;;;;;;;;5070313;28;20219;-78
2024/03/13 01:14:39;;;;;;;0.50;0.50;;;;;;;;;;5065493;28;20658;-78
2024/03/13 01:17:06;;;;;;;0.30;0.30;;;;;;;;;;5068934;28;20226;-78
2024/03/13 01:19:34;;;;;;;0.30;0.30;;;;;;;;;;5065889;28;20619;-78
2024/03/13 01:22:12;;;;;;;0.30;0.30;;;;;;;;;;5069430;28;20242;-78
2024/03/13 01:24:39;;;;;;;0.30;0.30;;;;;;;;;;5061706;28;20235;-79
2024/03/13 01:27:06;;;;;;;0.30;0.30;;;;;;;;;;5065488;28;20321;-78
2024/03/13 01:29:33;;;;;;;0.30;0.30;;;;;;;;;;5066773;28;20248;-78
2024/03/13 01:32:00;;;;;;;0.37;0.37;;;;;;;;;;5057772;28;20724;-78
2024/03/13 01:34:27;;;;;;;0.30;0.30;;;;;;;;;;5063041;28;20227;-78
2024/03/13 01:39:38;;;;;;;0.40;0.40;;;;;;;;;;5069889;28;20235;-78
2024/03/13 01:56:26;;;;;;;0.30;0.30;;;;;;;;;;5065129;28;20660;-78
2024/03/13 01:59:19;;;;;;;0.30;0.30;;;;;;;;;;5059246;28;20226;-78
2024/03/13 02:04:31;;;;;;;0.30;0.30;;;;;;;;;;5064430;28;20226;-77
2024/03/13 02:06:59;;;;;;;0.30;0.30;;;;;;;;;;5069347;28;20229;-79
2024/03/13 02:09:26;;;;;;;0.53;0.53;;;;;;;;;;5074469;28;20234;-79
2024/03/13 02:11:52;;;;;;;0.30;0.30;;;;;;;;;;5076955;28;20229;-78
2024/03/13 02:14:18;;;;;;;0.30;0.30;;;;;;;;;;5075426;28;20241;-77
2024/03/13 02:16:51;;;;;;;0.30;0.30;;;;;;;;;;5072766;28;20310;-79
2024/03/13 02:19:20;;;;;;;0.30;0.30;;;;;;;;;;5056673;28;20321;-78
2024/03/13 02:21:47;;;;;;;0.30;0.30;;;;;;;;;;5070245;28;20265;-78
2024/03/13 02:24:14;;;;;;;0.30;0.30;;;;;;;;;;5067872;28;20231;-78
2024/03/13 02:26:40;;;;;;;0.40;0.40;;;;;;;;;;5078586;28;20233;-80
2024/03/13 02:29:07;;;;;;;0.30;0.30;;;;;;;;;;5079961;28;20223;-78
2024/03/13 02:31:33;;;;;;;0.30;0.30;;;;;;;;;;5080218;28;20283;-77
2024/03/13 02:34:00;;;;;;;0.30;0.30;;;;;;;;;;5078310;28;20257;-77
2024/03/13 02:36:27;;;;;;;0.30;0.30;;;;;;;;;;5078207;28;20233;-78
2024/03/13 02:38:53;;;;;;;0.70;0.70;;;;;;;;;;5079164;28;20219;-77
2024/03/13 02:41:20;;;;;;;0.90;0.90;;;;;;;;;;5078968;28;20226;-78
2024/03/13 02:43:46;;;;;;;0.30;0.30;;;;;;;;;;5075637;28;20723;-79
2024/03/13 02:46:14;;;;;;;0.60;0.60;;;;;;;;;;5077829;28;20230;-79
2024/03/13 02:48:40;;;;;;;0.30;0.30;;;;;;;;;;5063228;28;20223;-79
2024/03/13 02:51:08;;;;;;;0.30;0.30;;;;;;;;;;5069224;28;20238;-80
2024/03/13 02:53:38;;;;;;;0.30;0.30;;;;;;;;;;5070821;28;20643;-80
2024/03/13 02:56:07;;;;;;;0.30;0.30;;;;;;;;;;5070878;28;20286;-79
2024/03/13 02:58:34;;;;;;;0.30;0.30;;;;;;;;;;5067207;28;20732;-79
2024/03/13 03:01:01;;;;;;;0.30;0.30;;;;;;;;;;5067852;28;20232;-79
2024/03/13 03:03:30;;;;;;;0.30;0.30;;;;;;;;;;5070321;28;20234;-79
2024/03/13 03:05:56;;;;;;;0.30;0.30;;;;;;;;;;5064036;28;20233;-78
2024/03/13 03:08:23;;;;;;;0.30;0.30;;;;;;;;;;5062211;28;20222;-80
2024/03/13 03:10:50;;;;;;;0.30;0.30;;;;;;;;;;5077881;28;20251;-80
2024/03/13 03:13:17;;;;;;;0.20;0.20;;;;;;;;;;5066707;28;20223;-79
2024/03/13 03:15:44;;;;;;;0.30;0.30;;;;;;;;;;5068900;28;20309;-79
2024/03/13 03:18:11;;;;;;;0.40;0.40;;;;;;;;;;5065966;28;20227;-80
2024/03/13 03:20:39;;;;;;;0.30;0.30;;;;;;;;;;5071395;28;20292;-80
2024/03/13 03:23:08;;;;;;;0.30;0.30;;;;;;;;;;5067230;28;20230;-79
2024/03/13 03:25:35;;;;;;;0.30;0.30;;;;;;;;;;5065833;28;20744;-80
2024/03/13 03:28:02;;;;;;;0.23;0.23;;;;;;;;;;5060402;28;20333;-80
2024/03/13 03:30:32;;;;;;;0.30;0.30;;;;;;;;;;5061003;28;20231;-80
2024/03/13 03:33:00;;;;;;;0.40;0.40;;;;;;;;;;5067543;28;20237;-80
2024/03/13 03:35:28;;;;;;;0.50;0.50;;;;;;;;;;5056464;28;20222;-80
2024/03/13 03:37:55;;;;;;;0.40;0.40;;;;;;;;;;5056280;28;20223;-79
2024/03/13 03:40:23;;;;;;;0.30;0.30;;;;;;;;;;5055317;28;20233;-80
2024/03/13 03:42:50;;;;;;;0.27;0.27;;;;;;;;;;5055787;28;20303;-80
2024/03/13 03:45:17;;;;;;;0.30;0.30;;;;;;;;;;5078347;28;20309;-79
2024/03/13 03:47:43;;;;;;;0.30;0.30;;;;;;;;;;5058655;28;20310;-79
2024/03/13 03:50:12;;;;;;;0.30;0.30;;;;;;;;;;5065694;28;20223;-79
2024/03/13 03:52:39;;;;;;;0.30;0.30;;;;;;;;;;5057928;28;20607;-79
2024/03/13 03:55:06;;;;;;;0.67;0.67;;;;;;;;;;5043779;28;20229;-80
2024/03/13 03:57:33;;;;;;;0.30;0.30;;;;;;;;;;5058237;28;20231;-79
2024/03/13 04:00:00;;;;;;;0.30;0.30;;;;;;;;;;5058130;28;20226;-79
2024/03/13 04:02:27;;;;;;;0.30;0.30;;;;;;;;;;5064113;28;20253;-79
2024/03/13 04:04:53;;;;;;;0.30;0.30;;;;;;;;;;5057590;28;20222;-80
2024/03/13 04:07:21;;;;;;;0.30;0.30;;;;;;;;;;5054404;28;20239;-79
2024/03/13 04:09:47;;;;;;;0.30;0.30;;;;;;;;;;5054613;28;20219;-78
2024/03/13 04:12:16;;;;;;;0.30;0.30;;;;;;;;;;5064249;28;20306;-78
2024/03/13 04:14:44;;;;;;;0.30;0.30;;;;;;;;;;5055589;28;20230;-78
2024/03/13 04:17:10;;;;;;;0.30;0.30;;;;;;;;;;5059397;28;20313;-78
2024/03/13 04:19:39;;;;;;;0.30;0.30;;;;;;;;;;5066394;28;20669;-78
2024/03/13 04:22:07;;;;;;;0.30;0.30;;;;;;;;;;5067369;28;20235;-78
2024/03/13 04:24:34;;;;;;;0.30;0.30;;;;;;;;;;5064963;28;20667;-77
2024/03/13 04:27:00;;;;;;;0.27;0.27;;;;;;;;;;5056091;28;20743;-79
2024/03/13 04:29:27;;;;;;;0.20;0.20;;;;;;;;;;5061957;28;20687;-78
2024/03/13 04:32:08;;;;;;;0.30;0.30;;;;;;;;;;5072586;28;20223;-78
2024/03/13 04:34:37;;;;;;;0.40;0.40;;;;;;;;;;5074565;28;20227;-80
2024/03/13 04:37:04;;;;;;;0.30;0.30;;;;;;;;;;5072995;28;20219;-81
2024/03/13 04:39:32;;;;;;;0.30;0.30;;;;;;;;;;5076214;28;20236;-78
2024/03/13 04:42:01;;;;;;;0.30;0.30;;;;;;;;;;5073339;28;20683;-78
2024/03/13 04:44:28;;;;;;;0.70;0.70;;;;;;;;;;5071721;28;20313;-79
2024/03/13 04:46:55;;;;;;;0.23;0.23;;;;;;;;;;5066910;28;20223;-79
2024/03/13 04:49:21;;;;;;;0.30;0.30;;;;;;;;;;5065887;28;20220;-82
2024/03/13 04:51:48;;;;;;;0.30;0.30;;;;;;;;;;5070646;28;20278;-78
2024/03/13 04:54:16;;;;;;;0.30;0.30;;;;;;;;;;5069061;28;20223;-79
2024/03/13 04:56:43;;;;;;;0.30;0.30;;;;;;;;;;5070987;28;20305;-78
2024/03/13 04:59:11;;;;;;;0.30;0.30;;;;;;;;;;5065092;28;20338;-79
2024/03/13 05:01:37;;;;;;;0.30;0.30;;;;;;;;;;5068969;28;20242;-78
2024/03/13 05:04:04;;;;;;;0.30;0.30;;;;;;;;;;5068695;28;20237;-79
2024/03/13 05:06:30;;;;;;;0.30;0.30;;;;;;;;;;5062732;28;20314;-79
2024/03/13 05:08:56;;;;;;;0.30;0.30;;;;;;;;;;5061849;28;20587;-79
2024/03/13 05:11:23;;;;;;;0.30;0.30;;;;;;;;;;5072170;28;20305;-81
2024/03/13 05:13:50;;;;;;;0.50;0.50;;;;;;;;;;5073606;28;20238;-79
2024/03/13 05:16:18;;;;;;;0.30;0.30;;;;;;;;;;5067157;28;20235;-78
2024/03/13 05:18:45;;;;;;;0.30;0.30;;;;;;;;;;5064481;28;20227;-78
2024/03/13 05:21:12;;;;;;;0.30;0.30;;;;;;;;;;5060169;28;20219;-78
2024/03/13 05:23:39;;;;;;;0.30;0.30;;;;;;;;;;5066601;28;20227;-79
2024/03/13 05:26:07;;;;;;;0.27;0.27;;;;;;;;;;5069113;28;20229;-79
2024/03/13 05:28:34;;;;;;;0.30;0.30;;;;;;;;;;5049129;28;20230;-78
2024/03/13 05:31:00;;;;;;;0.30;0.30;;;;;;;;;;5056181;28;20262;-80
2024/03/13 05:33:27;;;;;;;0.30;0.30;;;;;;;;;;5054917;28;20250;-78
2024/03/13 05:35:53;;;;;;;0.50;0.50;;;;;;;;;;5052499;28;20749;-79
2024/03/13 05:38:19;;;;;;;0.30;0.30;;;;;;;;;;5054745;28;20235;-78
2024/03/13 05:40:48;;;;;;;0.30;0.30;;;;;;;;;;5059889;28;20230;-79
2024/03/13 05:43:14;;;;;;;0.30;0.30;;;;;;;;;;5061872;28;20225;-79
2024/03/13 05:45:45;;;;;;;0.30;0.30;;;;;;;;;;5060617;28;20227;-78
2024/03/13 05:48:30;;;;;;;0.30;0.30;;;;;;;;;;5057603;28;20980;-78
2024/03/13 05:50:57;;;;;;;0.30;0.30;;;;;;;;;;5048826;28;20269;-78
2024/03/13 05:53:23;;;;;;;0.30;0.30;;;;;;;;;;5071351;28;20223;-79
2024/03/13 05:55:49;;;;;;;0.30;0.30;;;;;;;;;;5058514;28;20227;-80
2024/03/13 05:58:16;;;;;;;0.30;0.30;;;;;;;;;;5065191;28;20223;-79
2024/03/13 06:00:43;;;;;;;0.30;0.30;;;;;;;;;;5068843;28;20224;-80
2024/03/13 06:03:10;;;;;;;0.30;0.30;;;;;;;;;;5065094;28;20222;-79
2024/03/13 06:05:37;;;;;;;0.30;0.30;;;;;;;;;;5057188;28;20226;-81
2024/03/13 06:08:06;;;;;;;0.30;0.30;;;;;;;;;;5060317;28;20243;-80
2024/03/13 06:10:32;;;;;;;0.40;0.40;;;;;;;;;;5057390;28;20730;-80
2024/03/13 06:13:01;;;;;;;0.30;0.30;;;;;;;;;;5058941;28;20326;-78
2024/03/13 06:15:27;;;;;;;0.30;0.30;;;;;;;;;;5061313;28;20223;-80
2024/03/13 06:17:55;;;;;;;0.30;0.30;;;;;;;;;;5058456;28;20223;-79
2024/03/13 06:20:21;;;;;;;0.30;0.30;;;;;;;;;;5056807;28;20312;-79
2024/03/13 06:22:48;;;;;;;0.30;0.30;;;;;;;;;;5058190;28;20231;-80
2024/03/13 06:25:16;;;;;;;0.30;0.30;;;;;;;;;;5059788;28;20230;-80
2024/03/13 06:27:43;;;;;;;0.30;0.30;;;;;;;;;;5061054;28;20276;-79
2024/03/13 06:30:09;;;;;;;0.40;0.40;;;;;;;;;;5060187;28;20602;-80
2024/03/13 06:32:36;;;;;;;0.30;0.30;;;;;;;;;;5060777;28;20274;-79
2024/03/13 06:35:04;;;;;;;0.73;0.73;;;;;;;;;;5057771;28;20226;-79
2024/03/13 06:37:33;;;;;;;0.43;0.43;;;;;;;;;;5061004;28;20239;-80
2024/03/13 06:40:00;;;;;;;0.30;0.30;;;;;;;;;;5061895;28;20230;-80
2024/03/13 06:42:27;;;;;;;0.30;0.30;;;;;;;;;;5067814;28;20219;-80
2024/03/13 06:44:54;;;;;;;0.30;0.30;;;;;;;;;;5058358;28;20215;-79
2024/03/13 06:47:21;;;;;;;0.30;0.30;;;;;;;;;;5060838;28;20261;-81
2024/03/13 06:49:47;;;;;;;0.83;0.83;;;;;;;;;;5062098;28;20732;-81
2024/03/13 06:52:14;;;;;;;0.30;0.30;;;;;;;;;;5060825;28;20218;-79
2024/03/13 06:54:44;;;;;;;0.30;0.30;;;;;;;;;;5059924;28;20223;-80
2024/03/13 06:57:10;;;;;;;0.30;0.30;;;;;;;;;;5056212;28;20257;-79
2024/03/13 06:59:39;;;;;;;0.30;0.30;;;;;;;;;;5057006;28;20312;-78
2024/03/13 07:02:06;;;;;;;0.30;0.30;;;;;;;;;;5058000;28;20223;-79
2024/03/13 07:04:33;;;;;;;0.30;0.30;;;;;;;;;;5063664;28;20222;-78
2024/03/13 07:07:00;;;;;;;0.33;0.33;;;;;;;;;;5056575;28;20247;-79
2024/03/13 07:09:27;;;;;;;0.83;0.83;;;;;;;;;;5054596;28;20231;-78
2024/03/13 07:11:54;;;;;;;0.30;0.30;;;;;;;;;;5057495;28;20723;-78
2024/03/13 07:14:24;;;;;;;0.30;0.30;;;;;;;;;;5058012;28;20234;-78
2024/03/13 07:16:50;;;;;;;0.30;0.30;;;;;;;;;;5057876;28;20652;-78
2024/03/13 07:19:19;;;;;;;0.30;0.30;;;;;;;;;;5059944;28;20231;-77
2024/03/13 07:21:46;;;;;;;0.30;0.30;;;;;;;;;;5058907;28;20669;-79
2024/03/13 07:24:13;;;;;;;0.30;0.30;;;;;;;;;;5059812;28;20222;-80
2024/03/13 07:26:41;;;;;;;0.30;0.30;;;;;;;;;;5058257;28;20761;-78
2024/03/13 07:29:09;;;;;;;0.40;0.40;;;;;;;;;;5058449;28;20329;-79
2024/03/13 07:31:39;;;;;;;0.30;0.30;;;;;;;;;;5058586;28;20216;-79
2024/03/13 07:34:07;;;;;;;0.30;0.30;;;;;;;;;;5058064;28;20629;-78
2024/03/13 07:36:35;;;;;;;0.30;0.30;;;;;;;;;;5057306;28;20310;-80
2024/03/13 07:39:03;;;;;;;0.30;0.30;;;;;;;;;;5058270;28;20246;-78
2024/03/13 07:41:33;;;;;;;0.73;0.73;;;;;;;;;;5059513;28;20261;-78
2024/03/13 07:44:00;;;;;;;0.30;0.30;;;;;;;;;;5059870;28;20309;-78
2024/03/13 07:46:26;;;;;;;0.30;0.30;;;;;;;;;;5058233;28;20223;-78
2024/03/13 07:48:53;;;;;;;0.30;0.30;;;;;;;;;;5058205;28;20254;-78
2024/03/13 07:51:21;;;;;;;0.30;0.30;;;;;;;;;;5057827;28;20231;-78
2024/03/13 07:53:50;;;;;;;0.30;0.30;;;;;;;;;;5049279;28;21327;-78
2024/03/13 07:56:18;;;;;;;0.30;0.30;;;;;;;;;;5057732;28;20243;-78
2024/03/13 07:58:44;;;;;;;0.70;0.70;;;;;;;;;;5058969;28;20231;-78
2024/03/13 08:01:11;;;;;;;0.30;0.30;;;;;;;;;;5057059;28;20733;-78
2024/03/13 08:03:38;;;;;;;0.30;0.30;;;;;;;;;;5058026;28;20715;-78
2024/03/13 08:06:04;;;;;;;0.30;0.30;;;;;;;;;;5059045;28;20230;-79
2024/03/13 08:08:48;;;;;;;0.30;0.30;;;;;;;;;;5057670;28;20704;-78
2024/03/13 08:11:35;;;;;;;0.30;0.30;;;;;;;;;;5057503;28;20242;-78
2024/03/13 08:14:19;;;;;;;0.30;0.30;;;;;;;;;;5058090;28;20260;-79
2024/03/13 08:17:06;;;;;;;0.30;0.30;;;;;;;;;;5057479;28;20277;-78
2024/03/13 08:19:51;;;;;;;0.30;0.30;;;;;;;;;;5059257;28;20265;-77
2024/03/13 08:22:36;;;;;;;0.30;0.30;;;;;;;;;;5058007;28;20642;-77
2024/03/13 08:25:20;;;;;;;0.30;0.30;;;;;;;;;;5057029;28;20707;-78
2024/03/13 08:28:07;;;;;;;0.30;0.30;;;;;;;;;;5058731;28;20771;-77
2024/03/13 08:30:50;;;;;;;0.30;0.30;;;;;;;;;;5058384;28;20314;-78
2024/03/13 08:33:35;;;;;;;0.30;0.30;;;;;;;;;;5058437;28;20230;-78
2024/03/13 08:36:20;;;;;;;0.73;0.73;;;;;;;;;;5057889;28;20218;-78
2024/03/13 08:39:04;;;;;;;0.30;0.30;;;;;;;;;;5058259;28;20225;-78
2024/03/13 08:41:48;;;;;;;0.30;0.30;;;;;;;;;;5058108;28;20254;-78
2024/03/13 08:44:33;;;;;;;0.30;0.30;;;;;;;;;;5060600;28;20221;-77
2024/03/13 08:47:18;;;;;;;0.30;0.30;;;;;;;;;;5062551;28;20255;-77
2024/03/13 08:50:04;;;;;;;0.30;0.30;;;;;;;;;;5061526;28;20226;-78
2024/03/13 08:52:48;;;;;;;1.47;1.37;;;;;;;;;;5060401;28;20271;-78
2024/03/13 08:55:34;;;;;;;0.30;0.30;;;;;;;;;;5062462;28;20744;-77
2024/03/13 08:58:18;;;;;;;0.30;0.30;;;;;;;;;;5060332;28;20222;-78
2024/03/13 09:01:02;;;;;;;0.30;0.30;;;;;;;;;;5060632;28;20288;-77
2024/03/13 09:03:46;;;;;;;0.60;0.60;;;;;;;;;;5062389;28;20296;-78
2024/03/13 09:06:31;;;;;;;0.30;0.30;;;;;;;;;;5061637;28;20254;-78
2024/03/13 09:08:58;;;;;;;0.30;0.30;;;;;;;;;;5061278;28;20227;-78
2024/03/13 09:11:24;;;;;;;0.30;0.30;;;;;;;;;;5061217;28;20234;-78
2024/03/13 09:13:51;;;;;;;0.30;0.30;;;;;;;;;;5061850;28;20233;-77
2024/03/13 09:16:18;;;;;;;0.30;0.30;;;;;;;;;;5060612;28;20220;-78
2024/03/13 09:18:44;;;;;;;0.83;0.83;;;;;;;;;;5060858;28;20933;-78
2024/03/13 09:21:12;;;;;;;0.30;0.30;;;;;;;;;;5059190;28;20304;-78
2024/03/13 09:23:39;;;;;;;0.30;0.30;;;;;;;;;;5062396;28;20604;-77
2024/03/13 09:26:05;;;;;;;0.30;0.30;;;;;;;;;;5060218;28;20276;-78
2024/03/13 09:28:32;;;;;;;0.30;0.30;;;;;;;;;;5062147;28;20775;-78
2024/03/13 09:31:01;;;;;;;0.50;0.50;;;;;;;;;;5059641;28;20238;-77
2024/03/13 09:33:28;;;;;;;0.30;0.30;;;;;;;;;;5059620;28;20230;-78
2024/03/13 09:35:56;;;;;;;0.30;0.30;;;;;;;;;;5060870;28;20231;-78
2024/03/13 09:38:25;;;;;;;0.30;0.30;;;;;;;;;;5060755;28;20594;-77
2024/03/13 09:40:51;;;;;;;0.30;0.30;;;;;;;;;;5061491;28;20223;-78
2024/03/13 09:43:23;;;;;;;0.30;0.30;;;;;;;;;;5060392;28;20287;-78
2024/03/13 09:45:50;;;;;;;0.30;0.30;;;;;;;;;;5061313;28;20235;-76
2024/03/13 09:48:18;;;;;;;0.47;0.47;;;;;;;;;;5060938;28;20249;-77
2024/03/13 09:50:45;;;;;;;0.77;0.77;;;;;;;;;;5060385;28;20242;-77
2024/03/13 09:53:21;;;;;;;0.30;0.30;;;;;;;;;;5061241;28;20907;-79
2024/03/13 09:55:49;;;;;;;0.30;0.30;;;;;;;;;;5067495;28;20235;-78
2024/03/13 09:58:16;;;;;;;0.30;0.30;;;;;;;;;;5060997;28;20223;-78
2024/03/13 10:00:43;;;;;;;0.30;0.30;;;;;;;;;;5059784;28;20310;-78
2024/03/13 10:03:31;;;;;;;0.30;0.30;;;;;;;;;;5060479;28;20262;-77
2024/03/13 10:06:07;;;;;;;0.30;0.30;;;;;;;;;;5060844;28;20218;-78
2024/03/13 10:08:34;;;;;;;0.30;0.30;;;;;;;;;;5059579;28;20234;-77
2024/03/13 10:11:01;;;;;;;0.30;0.30;;;;;;;;;;5061119;28;20245;-78
2024/03/13 10:13:31;;;;;;;0.30;0.30;;;;;;;;;;5058770;28;20243;-78
2024/03/13 10:16:01;;;;;;;0.43;0.43;;;;;;;;;;5059128;28;20227;-78
2024/03/13 10:18:29;;;;;;;1.30;0.97;;;;;;;;;;5059727;28;20222;-78
2024/03/13 10:21:02;;;;;;;0.30;0.30;;;;;;;;;;5060443;28;20655;-78
2024/03/13 10:23:32;;;;;;;0.30;0.30;;;;;;;;;;5060636;28;20706;-78
2024/03/13 10:25:59;;;;;;;0.30;0.30;;;;;;;;;;5061011;28;20227;-78
2024/03/13 10:28:26;;;;;;;0.20;0.20;;;;;;;;;;5067082;28;20296;-78
2024/03/13 10:30:56;;;;;;;0.30;0.30;;;;;;;;;;5059615;28;20219;-79
2024/03/13 10:33:23;;;;;;;0.30;0.30;;;;;;;;;;5058781;28;20230;-78
2024/03/13 10:35:50;;;;;;;0.30;0.30;;;;;;;;;;5059937;28;20229;-78
2024/03/13 10:38:17;;;;;;;0.30;0.30;;;;;;;;;;5059823;28;20251;-78
2024/03/13 10:40:43;;;;;;;0.30;0.30;;;;;;;;;;5059460;28;20262;-77
2024/03/13 10:43:11;;;;;;;0.30;0.30;;;;;;;;;;5060205;28;20471;-78
2024/03/13 10:45:42;;;;;;;0.40;0.40;;;;;;;;;;5060627;28;20234;-78
2024/03/13 10:48:11;;;;;;;0.40;0.40;;;;;;;;;;5075972;28;20323;-78
2024/03/13 10:50:40;;;;;;;0.30;0.30;;;;;;;;;;5053887;28;20223;-78
2024/03/13 10:53:07;;;;;;;0.30;0.30;;;;;;;;;;5065773;28;20227;-78
2024/03/13 10:55:35;;;;;;;0.30;0.30;;;;;;;;;;5057748;28;20215;-78
2024/03/13 10:58:01;;;;;;;0.30;0.30;;;;;;;;;;5058840;28;20265;-78
2024/03/13 11:00:30;;;;;;;0.30;0.30;;;;;;;;;;5058627;28;20229;-78
2024/03/13 11:02:56;;;;;;;0.30;0.30;;;;;;;;;;5058069;28;20584;-77
2024/03/13 11:05:24;;;;;;;0.60;0.60;;;;;;;;;;5059482;28;20222;-78
2024/03/13 11:07:52;;;;;;;0.30;0.30;;;;;;;;;;5063652;28;20284;-79
2024/03/13 11:10:23;;;;;;;0.30;0.30;;;;;;;;;;5058748;28;20225;-80
2024/03/13 11:12:49;;;;;;;0.30;0.30;;;;;;;;;;5057966;28;20223;-79
2024/03/13 11:15:29;;;;;;;0.30;0.30;;;;;;;;;;5060167;28;20219;-78
2024/03/13 11:18:04;;;;;;;0.30;0.30;;;;;;;;;;5061371;28;20239;-77
2024/03/13 11:20:47;;;;;;;0.30;0.30;;;;;;;;;;5064355;28;20225;-79
2024/03/13 11:23:21;;;;;;;0.30;0.30;;;;;;;;;;5047360;28;20215;-78
2024/03/13 11:25:48;;;;;;;0.30;0.30;;;;;;;;;;5054904;28;20273;-78
2024/03/13 11:28:23;;;;;;;0.30;0.30;;;;;;;;;;5060129;28;20223;-78
2024/03/13 11:30:51;;;;;;;0.30;0.30;;;;;;;;;;5048289;28;20314;-78
2024/03/13 11:33:19;;;;;;;0.40;0.40;;;;;;;;;;5050954;28;20238;-78
2024/03/13 11:35:47;;;;;;;0.30;0.30;;;;;;;;;;5053686;28;20322;-78
2024/03/13 11:38:15;;;;;;;0.30;0.30;;;;;;;;;;5054573;28;20226;-79
2024/03/13 11:40:42;;;;;;;0.30;0.30;;;;;;;;;;5048227;28;20287;-79
2024/03/13 11:43:09;;;;;;;0.40;0.40;;;;;;;;;;5057230;28;20659;-77
2024/03/13 11:45:45;;;;;;;0.40;0.40;;;;;;;;;;5051244;28;20223;-78
2024/03/13 11:48:17;;;;;;;0.30;0.30;;;;;;;;;;5052727;28;20611;-78
2024/03/13 11:51:01;;;;;;;0.43;0.27;;;;;;;;;;5059417;28;20226;-78
2024/03/13 11:53:35;;;;;;;0.30;0.30;;;;;;;;;;5058940;28;20733;-78
2024/03/13 11:56:03;;;;;;;0.30;0.30;;;;;;;;;;5058541;28;20233;-78
2024/03/13 11:58:33;;;;;;;0.30;0.30;;;;;;;;;;5059066;28;20511;-78
2024/03/13 12:01:00;;;;;;;0.30;0.30;;;;;;;;;;5060158;28;21765;-78
2024/03/13 12:03:34;;;;;;;0.30;0.30;;;;;;;;;;5052797;28;20230;-78
2024/03/13 12:06:00;;;;;;;0.30;0.30;;;;;;;;;;5051239;28;20227;-78
2024/03/13 12:08:27;;;;;;;0.30;0.30;;;;;;;;;;5048985;28;21132;-79
2024/03/13 12:10:54;;;;;;;0.30;0.30;;;;;;;;;;5055194;28;20234;-78
2024/03/13 12:13:21;;;;;;;0.37;0.37;;;;;;;;;;5054953;28;20317;-78
2024/03/13 12:15:48;;;;;;;0.40;0.40;;;;;;;;;;5051015;28;20233;-78
2024/03/13 12:18:17;;;;;;;0.30;0.30;;;;;;;;;;5054661;28;20314;-78
2024/03/13 12:20:45;;;;;;;0.30;0.30;;;;;;;;;;5058699;28;20256;-78
2024/03/13 12:23:13;;;;;;;0.30;0.30;;;;;;;;;;5060054;28;20597;-78
2024/03/13 12:25:41;;;;;;;0.20;0.20;;;;;;;;;;5062965;28;20233;-78
2024/03/13 12:28:16;;;;;;;0.40;0.40;;;;;;;;;;5062329;28;20658;-77
2024/03/13 12:30:44;;;;;;;0.30;0.30;;;;;;;;;;5066160;28;20316;-77
2024/03/13 12:33:14;;;;;;;0.23;0.23;;;;;;;;;;5060415;28;20605;-78
2024/03/13 12:35:48;;;;;;;0.30;0.30;;;;;;;;;;5063326;28;20230;-78
2024/03/13 12:38:15;;;;;;;0.30;0.30;;;;;;;;;;5058767;28;20230;-78
2024/03/13 12:40:44;;;;;;;0.40;0.40;;;;;;;;;;5056885;28;20230;-79
2024/03/13 12:43:14;;;;;;;0.30;0.30;;;;;;;;;;5063059;28;20261;-78
2024/03/13 12:45:40;;;;;;;0.30;0.30;;;;;;;;;;5063628;28;20236;-79
2024/03/13 12:48:09;;;;;;;0.20;0.20;;;;;;;;;;5065060;28;20738;-78
2024/03/13 12:50:36;;;;;;;0.20;0.20;;;;;;;;;;5061500;28;20280;-79
2024/03/13 12:53:04;;;;;;;0.37;0.37;;;;;;;;;;5056614;28;20320;-79
2024/03/13 12:55:31;;;;;;;0.30;0.30;;;;;;;;;;5058321;28;20223;-77
2024/03/13 12:58:05;;;;;;;0.40;0.40;;;;;;;;;;5058389;28;20242;-78
2024/03/13 13:00:32;;;;;;;0.30;0.30;;;;;;;;;;5054933;28;20606;-78
2024/03/13 13:03:00;;;;;;;0.30;0.30;;;;;;;;;;5052417;28;20723;-78
2024/03/13 13:05:29;;;;;;;0.30;0.30;;;;;;;;;;5051175;28;20234;-79
2024/03/13 13:07:58;;;;;;;0.30;0.30;;;;;;;;;;5055319;28;20899;-77
2024/03/13 13:10:25;;;;;;;0.40;0.40;;;;;;;;;;5049614;28;20246;-78
2024/03/13 13:12:56;;;;;;;0.30;0.30;;;;;;;;;;5052519;28;20247;-77
2024/03/13 13:15:24;;;;;;;0.40;0.40;;;;;;;;;;5055747;28;20268;-78
2024/03/13 13:17:51;;;;;;;0.40;0.40;;;;;;;;;;5057739;28;20309;-78
2024/03/13 13:20:18;;;;;;;0.30;0.30;;;;;;;;;;5053450;28;20254;-77
2024/03/13 13:22:47;;;;;;;1.30;0.83;;;;;;;;;;5052773;28;20220;-77
2024/03/13 13:25:16;;;;;;;0.40;0.40;;;;;;;;;;5054554;28;20234;-77
2024/03/13 13:27:43;;;;;;;0.47;0.47;;;;;;;;;;5053444;28;21260;-77
2024/03/13 13:30:10;;;;;;;0.40;0.40;;;;;;;;;;5053623;28;20323;-77
2024/03/13 13:32:37;;;;;;;1.27;1.13;;;;;;;;;;5055940;28;20727;-76
2024/03/13 13:35:06;;;;;;;0.30;0.30;;;;;;;;;;5060227;28;20291;-77
2024/03/13 13:37:34;;;;;;;0.27;0.27;;;;;;;;;;5057751;28;20333;-77
2024/03/13 13:40:05;;;;;;;0.30;0.30;;;;;;;;;;5062474;28;20314;-77
2024/03/13 13:42:32;;;;;;;0.30;0.30;;;;;;;;;;5053914;28;20300;-78
2024/03/13 13:44:58;;;;;;;0.30;0.30;;;;;;;;;;5054320;28;20227;-79
2024/03/13 13:47:26;;;;;;;0.30;0.30;;;;;;;;;;5051488;28;20242;-76
2024/03/13 13:49:55;;;;;;;0.30;0.30;;;;;;;;;;5054660;28;20223;-78
2024/03/13 13:52:21;;;;;;;0.30;0.30;;;;;;;;;;5055409;28;20583;-79
2024/03/13 13:54:48;;;;;;;0.70;0.70;;;;;;;;;;5050526;28;20218;-77
2024/03/13 13:57:15;;;;;;;0.30;0.30;;;;;;;;;;5053253;28;20226;-77
2024/03/13 13:59:42;;;;;;;0.70;0.70;;;;;;;;;;5056865;28;20290;-79
2024/03/13 14:02:11;;;;;;;0.33;0.33;;;;;;;;;;5055605;28;20276;-78
2024/03/13 14:04:39;;;;;;;0.20;0.20;;;;;;;;;;5052225;28;20239;-78
2024/03/13 14:07:07;;;;;;;0.30;0.30;;;;;;;;;;5051956;28;20711;-78
2024/03/13 14:09:37;;;;;;;0.30;0.30;;;;;;;;;;5056886;28;20284;-77
2024/03/13 14:12:04;;;;;;;0.30;0.30;;;;;;;;;;5060550;28;20219;-78
2024/03/13 14:14:33;;;;;;;0.50;0.50;;;;;;;;;;5051338;28;20219;-77
2024/03/13 14:17:02;;;;;;;0.40;0.40;;;;;;;;;;5054504;28;20312;-78
2024/03/13 14:19:28;;;;;;;0.30;0.30;;;;;;;;;;5054870;28;20226;-78
2024/03/13 14:21:54;;;;;;;1.40;1.07;;;;;;;;;;5051996;28;20253;-78
2024/03/13 14:24:21;;;;;;;0.30;0.30;;;;;;;;;;5054289;28;20223;-77
2024/03/13 14:26:48;;;;;;;0.30;0.30;;;;;;;;;;5050527;28;20230;-78
2024/03/13 14:29:16;;;;;;;0.30;0.30;;;;;;;;;;5057676;28;20284;-79
2024/03/13 14:31:42;;;;;;;0.30;0.30;;;;;;;;;;5055022;28;20231;-78
2024/03/13 14:34:10;;;;;;;0.30;0.30;;;;;;;;;;5053606;28;20234;-78
2024/03/13 14:36:37;;;;;;;0.30;0.30;;;;;;;;;;5053504;28;20241;-79
2024/03/13 14:39:04;;;;;;;0.30;0.30;;;;;;;;;;5057314;28;20230;-79
2024/03/13 14:41:31;;;;;;;0.30;0.30;;;;;;;;;;5061089;28;20291;-78
2024/03/13 14:43:57;;;;;;;0.30;0.30;;;;;;;;;;5054196;28;20229;-77
2024/03/13 14:46:23;;;;;;;0.20;0.20;;;;;;;;;;5053541;28;20227;-78
2024/03/13 14:48:50;;;;;;;0.30;0.30;;;;;;;;;;5057998;28;20234;-77
2024/03/13 14:51:17;;;;;;;0.30;0.30;;;;;;;;;;5058763;28;20704;-79
2024/03/13 14:53:44;;;;;;;0.30;0.30;;;;;;;;;;5055841;28;20223;-77
2024/03/13 14:56:13;;;;;;;0.30;0.30;;;;;;;;;;5056608;28;20226;-79
2024/03/13 14:58:40;;;;;;;0.40;0.40;;;;;;;;;;5056301;28;20231;-79
2024/03/13 15:01:07;;;;;;;0.30;0.30;;;;;;;;;;5065349;28;20306;-77
2024/03/13 15:03:43;;;;;;;0.33;0.33;;;;;;;;;;5059941;28;20234;-79
2024/03/13 15:06:10;;;;;;;0.30;0.30;;;;;;;;;;5070269;28;20326;-77
2024/03/13 15:08:38;;;;;;;0.30;0.30;;;;;;;;;;5062924;28;20230;-78
2024/03/13 15:11:04;;;;;;;0.30;0.30;;;;;;;;;;5053085;28;20228;-78
2024/03/13 15:13:31;;;;;;;0.30;0.30;;;;;;;;;;5054990;28;20250;-78